createdAt,value
2018-07-06T00:03:41.587Z,4.42
2018-07-06T00:09:28.126Z,5.58
2018-07-06T00:15:14.387Z,4.55
2018-07-06T00:21:00.776Z,4.55
2018-07-06T00:26:47.036Z,4.37
2018-07-06T00:32:33.105Z,3.55
2018-07-06T00:38:19.261Z,3.83
2018-07-06T00:44:05.575Z,3.62
2018-07-06T00:49:51.791Z,3.35
2018-07-06T00:55:38.187Z,4.08
2018-07-06T01:01:24.401Z,3.50
2018-07-06T01:07:10.484Z,4.42
2018-07-06T01:13:02.755Z,4.08
2018-07-06T01:18:48.908Z,7.40
2018-07-06T01:24:35.169Z,3.87
2018-07-06T01:30:21.454Z,4.30
2018-07-06T01:36:08.064Z,3.40
2018-07-06T01:41:54.635Z,2.70
2018-07-06T01:47:40.809Z,3.75
2018-07-06T01:53:27.066Z,2.40
2018-07-06T01:59:13.402Z,3.22
2018-07-06T02:04:53.646Z,2.55
2018-07-06T02:10:40.086Z,4.75
2018-07-06T02:16:26.279Z,3.10
2018-07-06T02:22:12.620Z,2.65
2018-07-06T02:27:58.860Z,8.05
2018-07-06T02:33:45.244Z,5.35
2018-07-06T02:39:25.671Z,3.17
2018-07-06T02:45:11.921Z,4.42
2018-07-06T02:50:58.264Z,3.85
2018-07-06T02:56:44.562Z,3.42
2018-07-06T03:02:30.923Z,3.45
2018-07-06T03:08:11.408Z,3.27
2018-07-06T03:13:57.582Z,4.35
2018-07-06T03:19:43.964Z,3.30
2018-07-06T03:25:30.295Z,3.87
2018-07-06T03:31:16.469Z,3.90
2018-07-06T03:37:03.006Z,3.60
2018-07-06T03:42:49.233Z,2.80
2018-07-06T03:48:35.690Z,4.60
2018-07-06T03:54:22.056Z,3.45
2018-07-06T04:00:08.624Z,2.40
2018-07-06T04:05:54.811Z,3.52
2018-07-06T04:11:41.005Z,3.15
2018-07-06T04:17:27.283Z,3.15
2018-07-06T04:23:13.497Z,3.17
2018-07-06T04:28:59.673Z,2.60
2018-07-06T04:34:45.750Z,3.42
2018-07-06T04:40:32.090Z,5.42
2018-07-06T04:46:12.731Z,3.47
2018-07-06T04:51:59.083Z,3.15
2018-07-06T04:57:45.329Z,3.80
2018-07-06T05:03:31.492Z,4.35
2018-07-06T05:09:17.628Z,4.30
2018-07-06T05:15:03.821Z,3.98
2018-07-06T05:20:49.935Z,5.67
2018-07-06T05:26:36.293Z,4.97
2018-07-06T05:32:22.512Z,4.92
2018-07-06T05:38:08.762Z,5.03
2018-07-06T05:43:54.993Z,2.30
2018-07-06T05:49:41.195Z,3.02
2018-07-06T05:55:21.186Z,3.05
2018-07-06T06:01:07.325Z,3.50
2018-07-06T06:06:53.438Z,2.40
2018-07-06T06:12:22.832Z,4.58
2018-07-06T06:17:52.164Z,2.35
2018-07-06T06:23:21.393Z,2.42
2018-07-06T06:28:50.602Z,2.00
2018-07-06T06:34:19.905Z,4.62
2018-07-06T06:39:49.229Z,1.72
2018-07-06T06:45:18.437Z,3.25
2018-07-06T06:50:47.788Z,2.08
2018-07-06T06:56:16.992Z,2.42
2018-07-06T07:01:46.341Z,2.08
2018-07-06T07:07:15.704Z,2.10
2018-07-06T07:12:44.947Z,4.22
2018-07-06T07:18:14.201Z,1.67
2018-07-06T07:23:43.581Z,6.90
2018-07-06T07:29:12.853Z,2.10
2018-07-06T07:34:42.074Z,2.02
2018-07-06T07:40:11.281Z,2.37
2018-07-06T07:45:40.581Z,2.67
2018-07-06T07:52:01.990Z,3.77
2018-07-06T07:57:31.210Z,3.67
2018-07-06T08:03:00.436Z,2.50
2018-07-06T08:08:29.677Z,2.50
2018-07-06T08:14:04.908Z,1.95
2018-07-06T08:19:28.231Z,2.02
2018-07-06T08:24:57.439Z,2.98
2018-07-06T08:30:26.615Z,2.00
2018-07-06T08:36:16.754Z,3.17
2018-07-06T08:41:46.019Z,6.05
2018-07-06T08:47:15.291Z,1.65
2018-07-06T08:52:45.688Z,2.72
2018-07-06T08:58:15.100Z,1.40
2018-07-06T09:03:44.387Z,2.10
2018-07-06T09:09:13.651Z,4.00
2018-07-06T09:14:42.954Z,1.60
2018-07-06T09:20:12.434Z,4.37
2018-07-06T09:25:41.545Z,2.62
2018-07-06T09:31:10.819Z,3.90
2018-07-06T09:36:40.970Z,3.40
2018-07-06T09:42:10.148Z,3.90
2018-07-06T09:47:39.394Z,6.35
2018-07-06T09:53:08.615Z,8.20
2018-07-06T09:58:37.808Z,6.33
2018-07-06T10:04:07.092Z,7.28
2018-07-06T10:09:36.168Z,7.83
2018-07-06T10:15:05.443Z,8.45
2018-07-06T10:20:34.643Z,8.85
2018-07-06T10:26:03.976Z,10.20
2018-07-06T10:32:45.767Z,10.73
2018-07-06T10:38:14.982Z,13.60
2018-07-06T10:43:44.263Z,14.68
2018-07-06T10:49:13.530Z,13.65
2018-07-06T10:54:43.392Z,19.00
2018-07-06T11:00:12.794Z,16.60
2018-07-06T11:05:41.982Z,16.63
2018-07-06T11:11:11.250Z,19.10
2018-07-06T11:16:40.556Z,20.05
2018-07-06T11:22:09.807Z,15.80
2018-07-06T11:27:39.056Z,18.80
2018-07-06T11:33:08.263Z,18.87
2018-07-06T11:38:37.523Z,22.55
2018-07-06T11:44:06.747Z,22.17
2018-07-06T11:49:36.084Z,10.70
2018-07-06T11:55:05.344Z,8.10
2018-07-06T12:00:34.605Z,9.73
2018-07-06T12:06:03.849Z,11.50
2018-07-06T12:11:33.517Z,12.47
2018-07-06T12:17:02.753Z,13.28
2018-07-06T12:22:31.970Z,13.67
2018-07-06T12:28:01.341Z,13.43
2018-07-06T12:33:30.583Z,13.40
2018-07-06T12:38:59.806Z,18.93
2018-07-06T12:44:29.097Z,17.00
2018-07-06T12:49:58.408Z,15.95
2018-07-06T12:55:27.652Z,12.53
2018-07-06T13:00:56.880Z,11.10
2018-07-06T13:06:26.248Z,14.87
2018-07-06T13:11:55.449Z,17.02
2018-07-06T13:17:24.683Z,19.55
2018-07-06T13:22:53.905Z,18.32
2018-07-06T13:28:23.159Z,19.77
2018-07-06T13:33:52.513Z,19.80
2018-07-06T13:39:21.717Z,18.45
2018-07-06T13:44:51.030Z,16.77
2018-07-06T13:50:20.276Z,16.03
2018-07-06T13:55:49.593Z,14.30
2018-07-06T14:01:18.832Z,15.43
2018-07-06T14:06:48.196Z,13.30
2018-07-06T14:12:18.805Z,13.45
2018-07-06T14:17:47.996Z,13.70
2018-07-06T14:23:17.268Z,13.72
2018-07-06T14:28:46.613Z,13.65
2018-07-06T14:34:15.832Z,12.33
2018-07-06T14:39:45.134Z,13.85
2018-07-06T14:45:14.443Z,13.80
2018-07-06T14:50:43.737Z,15.90
2018-07-06T14:56:12.954Z,20.07
2018-07-06T15:01:42.286Z,16.02
2018-07-06T15:07:11.546Z,16.57
2018-07-06T15:12:40.831Z,14.03
2018-07-06T15:18:10.136Z,12.75
2018-07-06T15:23:39.442Z,10.20
2018-07-06T15:29:08.700Z,11.03
2018-07-06T15:34:37.945Z,11.67
2018-07-06T15:40:07.234Z,11.78
2018-07-06T15:45:38.240Z,13.20
2018-07-06T15:51:07.575Z,13.50
2018-07-06T15:56:36.867Z,13.50
2018-07-06T16:02:06.076Z,11.70
2018-07-06T16:07:35.477Z,13.15
2018-07-06T16:13:04.963Z,10.50
2018-07-06T16:18:34.396Z,11.67
2018-07-06T16:24:03.654Z,11.80
2018-07-06T16:29:32.988Z,15.03
2018-07-06T16:35:02.279Z,18.27
2018-07-06T16:40:31.535Z,15.15
2018-07-06T16:46:00.773Z,19.50
2018-07-06T16:51:30.014Z,11.35
2018-07-06T16:56:59.291Z,8.57
2018-07-06T17:02:29.626Z,8.75
2018-07-06T17:07:58.947Z,7.00
2018-07-06T17:13:28.290Z,6.92
2018-07-06T17:18:57.531Z,5.83
2018-07-06T17:24:26.952Z,5.57
2018-07-06T17:29:56.368Z,7.30
2018-07-06T17:35:25.823Z,10.68
2018-07-06T17:40:55.099Z,7.95
2018-07-06T17:46:24.804Z,10.80
2018-07-06T17:51:54.297Z,10.32
2018-07-06T17:57:23.578Z,10.28
2018-07-06T18:02:53.483Z,11.80
2018-07-06T18:08:23.510Z,9.07
2018-07-06T18:13:52.739Z,11.00
2018-07-06T18:19:22.139Z,7.22
2018-07-06T18:24:51.520Z,10.67
2018-07-06T18:30:21.200Z,9.35
2018-07-06T18:35:50.596Z,9.28
2018-07-06T18:41:19.947Z,8.28
2018-07-06T18:46:49.288Z,8.20
2018-07-06T18:52:18.733Z,9.30
2018-07-06T18:57:48.103Z,7.80
2018-07-06T19:03:18.399Z,8.03
2018-07-06T19:08:48.030Z,7.50
2018-07-06T19:14:17.909Z,7.17
2018-07-06T19:19:58.836Z,8.55
2018-07-06T19:25:29.491Z,6.72
2018-07-06T19:31:02.175Z,6.20
2018-07-06T19:36:31.757Z,6.87
2018-07-06T19:42:00.987Z,4.62
2018-07-06T19:47:30.343Z,4.60
2018-07-06T19:52:59.693Z,5.03
2018-07-06T19:58:29.001Z,5.62
2018-07-06T20:03:58.348Z,6.72
2018-07-06T20:09:27.696Z,5.58
2018-07-06T20:14:57.029Z,4.75
2018-07-06T20:20:26.667Z,4.75
2018-07-06T20:25:55.961Z,5.55
2018-07-06T20:31:25.019Z,3.75
2018-07-06T20:36:54.678Z,5.25
2018-07-06T20:42:24.164Z,7.53
2018-07-06T20:47:53.495Z,5.97
2018-07-06T20:53:23.035Z,6.25
2018-07-06T20:58:52.645Z,4.97
2018-07-06T21:04:21.643Z,4.40
2018-07-06T21:09:53.010Z,5.22
2018-07-06T21:15:22.714Z,5.40
2018-07-06T21:20:52.968Z,6.35
2018-07-06T21:26:22.680Z,6.25
2018-07-06T21:31:52.070Z,6.30
2018-07-06T21:37:21.441Z,7.77
2018-07-06T21:42:50.781Z,10.15
2018-07-06T21:48:20.111Z,6.30
2018-07-06T21:53:49.325Z,7.22
2018-07-06T21:59:18.632Z,10.32
2018-07-06T22:04:48.092Z,9.08
2018-07-06T22:10:17.487Z,7.62
2018-07-06T22:15:47.726Z,9.50
2018-07-06T22:21:16.971Z,8.58
2018-07-06T22:26:46.297Z,10.20
2018-07-06T22:32:15.293Z,7.87
2018-07-06T22:37:44.825Z,9.50
2018-07-06T22:43:14.238Z,10.32
2018-07-06T22:48:43.354Z,8.50
2018-07-06T22:54:12.543Z,8.00
2018-07-06T22:59:41.800Z,8.55
2018-07-06T23:05:15.376Z,9.33
2018-07-06T23:10:44.671Z,10.85
2018-07-06T23:16:13.764Z,9.60
2018-07-06T23:21:42.957Z,8.40
2018-07-06T23:27:12.290Z,7.83
2018-07-06T23:32:41.619Z,8.08
2018-07-06T23:38:10.852Z,7.75
2018-07-06T23:43:40.112Z,7.83
2018-07-06T23:49:09.408Z,9.95
2018-07-06T23:54:38.846Z,7.43
